Time;durP1;ratioP1;P1;durP2;ratioP2;P2;SDS_P1;SDS_P2;PMS_P1;PMS_P2;Temp;Humidity;BMP_temperature;BMP_pressure;BME280_temperature;BME280_humidity;BME280_pressure;Samples;Min_cycle;Max_cycle;Signal;HPM_P1;HPM_P2
2024/02/13 00:00:58;;;;;;;7.72;1.80;;;6.40;99.90;;;;;;4988894;28;20035;-44
2024/02/13 00:03:24;;;;;;;2.28;1.88;;;6.40;99.90;;;;;;4988441;28;20333;-45
2024/02/13 00:05:54;;;;;;;2.80;1.58;;;;;;;;;;4988423;28;20026;-46
2024/02/13 00:08:20;;;;;;;3.97;1.63;;;6.60;99.90;;;;;;4995826;28;20038;-42
2024/02/13 00:10:45;;;;;;;4.30;1.80;;;6.10;99.90;;;;;;4990577;28;20476;-44
2024/02/13 00:13:11;;;;;;;4.60;2.15;;;6.30;99.90;;;;;;4991733;28;20069;-39
2024/02/13 00:15:38;;;;;;;2.67;1.80;;;;;;;;;;4994052;28;20022;-45
2024/02/13 00:18:07;;;;;;;2.13;1.92;;;6.30;99.90;;;;;;4974766;28;20389;-47
2024/02/13 00:20:32;;;;;;;4.57;2.30;;;6.30;99.90;;;;;;4992901;28;20050;-49
2024/02/13 00:22:59;;;;;;;3.45;1.63;;;6.30;99.90;;;;;;5011204;28;20422;-44
2024/02/13 00:25:26;;;;;;;2.35;1.90;;;6.40;99.90;;;;;;5011013;28;20037;-45
2024/02/13 00:27:51;;;;;;;5.10;2.38;;;6.40;99.90;;;;;;5007319;28;20030;-44
2024/02/13 00:30:18;;;;;;;7.95;3.13;;;6.20;99.90;;;;;;4991777;28;20034;-39
2024/02/13 00:32:44;;;;;;;8.38;2.30;;;6.20;99.90;;;;;;4992068;28;20030;-43
2024/02/13 00:35:09;;;;;;;3.97;2.20;;;6.20;99.90;;;;;;4991229;28;20030;-43
2024/02/13 00:37:36;;;;;;;3.28;1.70;;;6.10;99.90;;;;;;4991510;28;20085;-43
2024/02/13 00:40:05;;;;;;;3.53;1.90;;;6.10;99.90;;;;;;4991705;28;20091;-41
2024/02/13 00:42:32;;;;;;;5.32;1.85;;;6.00;99.90;;;;;;5002176;28;20022;-40
2024/02/13 00:45:00;;;;;;;2.90;2.10;;;6.00;99.90;;;;;;5011711;28;20018;-46
2024/02/13 00:47:28;;;;;;;6.15;2.50;;;6.00;99.90;;;;;;5013740;28;20022;-41
2024/02/13 00:49:54;;;;;;;4.13;1.77;;;6.00;99.90;;;;;;5013684;28;20033;-44
2024/02/13 00:52:20;;;;;;;4.00;1.73;;;6.00;99.90;;;;;;5013654;28;20034;-43
2024/02/13 00:54:45;;;;;;;5.53;1.95;;;5.80;99.90;;;;;;5013207;28;20026;-43
2024/02/13 00:57:11;;;;;;;2.70;1.90;;;5.70;99.90;;;;;;5013658;28;20036;-40
2024/02/13 00:59:36;;;;;;;7.15;2.20;;;5.70;99.90;;;;;;5013556;28;20030;-40
2024/02/13 01:02:02;;;;;;;9.10;1.95;;;5.70;99.90;;;;;;5013707;28;20555;-44
2024/02/13 01:04:27;;;;;;;7.50;1.92;;;5.70;99.90;;;;;;5013562;28;20050;-44
2024/02/13 01:06:53;;;;;;;6.03;2.30;;;5.70;99.90;;;;;;5013284;28;20036;-41
2024/02/13 01:09:19;;;;;;;9.82;2.35;;;5.70;99.90;;;;;;5013066;28;20025;-43
2024/02/13 01:11:44;;;;;;;6.85;2.72;;;5.80;99.90;;;;;;5012057;28;20104;-43
2024/02/13 01:14:10;;;;;;;4.00;2.13;;;5.90;99.90;;;;;;5013158;28;20030;-43
2024/02/13 01:16:38;;;;;;;3.83;2.30;;;5.90;99.90;;;;;;5012910;28;20105;-43
2024/02/13 01:19:03;;;;;;;3.17;2.05;;;5.90;99.90;;;;;;5010545;28;20034;-46
2024/02/13 01:21:30;;;;;;;2.60;1.80;;;6.00;99.90;;;;;;5013146;28;20029;-43
2024/02/13 01:23:56;;;;;;;11.05;2.20;;;6.00;99.90;;;;;;5012829;28;20018;-42
2024/02/13 01:26:23;;;;;;;4.03;2.50;;;5.90;99.90;;;;;;5012763;28;20121;-45
2024/02/13 01:28:49;;;;;;;3.88;2.00;;;5.90;99.90;;;;;;5013049;28;20125;-47
2024/02/13 01:31:16;;;;;;;10.07;2.58;;;5.70;99.90;;;;;;5012990;28;20022;-41
2024/02/13 01:33:42;;;;;;;5.60;2.22;;;5.70;99.90;;;;;;5012987;28;20022;-43
2024/02/13 01:36:09;;;;;;;5.75;1.80;;;5.70;99.90;;;;;;5012659;28;20041;-44
2024/02/13 01:38:37;;;;;;;2.38;1.77;;;5.70;99.90;;;;;;5012146;28;20021;-41
2024/02/13 01:41:03;;;;;;;4.05;2.85;;;;;;;;;;5013869;28;20022;-41
2024/02/13 01:43:31;;;;;;;3.10;2.28;;;5.60;99.90;;;;;;5013608;28;20033;-41
2024/02/13 01:45:58;;;;;;;5.53;2.20;;;5.50;99.90;;;;;;5013601;28;20056;-41
2024/02/13 01:48:25;;;;;;;6.95;2.15;;;5.40;99.90;;;;;;5013424;28;20503;-40
2024/02/13 01:50:52;;;;;;;5.43;2.08;;;5.30;99.90;;;;;;5013032;28;20040;-42
2024/02/13 01:53:21;;;;;;;6.22;2.53;;;5.40;99.90;;;;;;5012441;28;20018;-47
2024/02/13 01:55:47;;;;;;;11.65;3.55;;;;;;;;;;5012376;28;20025;-42
2024/02/13 01:58:15;;;;;;;4.60;3.10;;;5.40;99.90;;;;;;5012361;28;20487;-42
2024/02/13 02:00:41;;;;;;;8.50;2.55;;;5.40;99.90;;;;;;5012460;28;20502;-43
2024/02/13 02:03:09;;;;;;;6.13;2.50;;;5.40;99.90;;;;;;5012254;28;20022;-41
2024/02/13 02:05:35;;;;;;;4.78;2.25;;;5.30;99.90;;;;;;5012253;28;20500;-42
2024/02/13 02:08:01;;;;;;;5.75;2.50;;;5.40;99.90;;;;;;5012152;28;20029;-42
2024/02/13 02:10:27;;;;;;;4.68;1.95;;;5.40;99.90;;;;;;5012280;28;20022;-43
2024/02/13 02:12:52;;;;;;;7.80;3.00;;;5.30;99.90;;;;;;5012135;28;20022;-41
2024/02/13 02:15:18;;;;;;;8.27;2.58;;;5.30;99.90;;;;;;5011860;28;20509;-41
2024/02/13 02:17:53;;;;;;;8.05;4.13;;;5.30;99.90;;;;;;5011942;28;20025;-42
2024/02/13 02:20:19;;;;;;;4.75;2.65;;;5.30;99.90;;;;;;5011851;28;20022;-46
2024/02/13 02:22:47;;;;;;;4.90;2.50;;;5.30;99.90;;;;;;5011934;28;20471;-45
2024/02/13 02:25:14;;;;;;;5.18;2.95;;;5.30;99.90;;;;;;5011690;28;20046;-40
2024/02/13 02:27:39;;;;;;;6.32;2.88;;;5.30;99.90;;;;;;5011735;28;20034;-44
2024/02/13 02:30:06;;;;;;;4.90;2.60;;;5.30;99.90;;;;;;5010132;28;20083;-41
2024/02/13 02:32:32;;;;;;;10.75;3.13;;;5.30;99.90;;;;;;5011661;28;20442;-41
2024/02/13 02:34:59;;;;;;;5.80;3.30;;;5.30;99.90;;;;;;5011524;28;20084;-41
2024/02/13 02:37:24;;;;;;;9.27;3.10;;;5.30;99.90;;;;;;5011630;28;20030;-41
2024/02/13 02:39:50;;;;;;;4.57;2.78;;;5.30;99.90;;;;;;5011622;28;20369;-41
2024/02/13 02:42:16;;;;;;;7.05;3.72;;;5.30;99.90;;;;;;5011601;28;20454;-43
2024/02/13 02:44:42;;;;;;;8.35;3.55;;;5.20;99.90;;;;;;5011106;28;20049;-43
2024/02/13 02:47:07;;;;;;;4.25;2.88;;;5.20;99.90;;;;;;5012293;28;20072;-44
2024/02/13 02:49:33;;;;;;;6.35;4.07;;;5.30;99.90;;;;;;5011560;28;20029;-42
2024/02/13 02:51:58;;;;;;;7.07;3.35;;;5.30;99.90;;;;;;4994143;28;20018;-41
2024/02/13 02:54:25;;;;;;;7.97;3.55;;;5.30;99.90;;;;;;5011345;28;20052;-45
2024/02/13 02:56:50;;;;;;;6.03;3.53;;;5.20;99.90;;;;;;5011476;28;20018;-42
2024/02/13 02:59:16;;;;;;;11.07;3.95;;;5.10;99.90;;;;;;5010111;28;20022;-43
2024/02/13 03:01:42;;;;;;;8.60;3.97;;;5.10;99.90;;;;;;5011551;28;20093;-44
2024/02/13 03:04:07;;;;;;;8.50;4.30;;;5.10;99.90;;;;;;5011420;28;20022;-41
2024/02/13 03:06:33;;;;;;;6.28;3.92;;;5.00;99.90;;;;;;5011215;28;20402;-42
2024/02/13 03:09:00;;;;;;;7.82;3.55;;;5.00;99.90;;;;;;5011459;28;20479;-42
2024/02/13 03:11:26;;;;;;;7.32;4.57;;;5.00;99.90;;;;;;4994035;28;20430;-41
2024/02/13 03:13:52;;;;;;;9.25;3.72;;;5.00;99.90;;;;;;5011185;28;20034;-41
2024/02/13 03:16:17;;;;;;;5.10;3.67;;;5.10;99.90;;;;;;4993456;28;20026;-41
2024/02/13 03:18:43;;;;;;;6.22;3.35;;;5.00;99.90;;;;;;5011209;28;20042;-43
2024/02/13 03:21:08;;;;;;;12.45;3.42;;;5.00;99.90;;;;;;5011430;28;20030;-43
2024/02/13 03:23:34;;;;;;;7.45;3.42;;;5.00;99.90;;;;;;5011244;28;20018;-41
2024/02/13 03:25:59;;;;;;;13.10;4.50;;;5.00;99.90;;;;;;5011165;28;20083;-41
2024/02/13 03:28:25;;;;;;;6.53;3.90;;;5.00;99.90;;;;;;5010979;28;20026;-41
2024/02/13 03:30:53;;;;;;;4.90;3.30;;;5.00;99.90;;;;;;5010121;28;20030;-41
2024/02/13 03:33:20;;;;;;;5.13;3.22;;;5.00;99.90;;;;;;5009884;28;20069;-41
2024/02/13 03:35:47;;;;;;;10.15;3.35;;;5.00;99.90;;;;;;5011102;28;20029;-42
2024/02/13 03:38:13;;;;;;;9.68;4.15;;;5.00;99.90;;;;;;5011186;28;20026;-43
2024/02/13 03:40:38;;;;;;;10.15;4.43;;;5.00;99.90;;;;;;5011222;28;20034;-43
2024/02/13 03:43:04;;;;;;;5.72;3.60;;;4.90;99.90;;;;;;5014262;28;20391;-41
2024/02/13 03:45:29;;;;;;;6.85;3.70;;;4.90;99.90;;;;;;5014705;28;20026;-42
2024/02/13 03:47:55;;;;;;;7.85;3.60;;;4.80;99.90;;;;;;5015230;28;20398;-41
2024/02/13 03:50:20;;;;;;;5.55;3.58;;;4.80;99.90;;;;;;5015544;28;20105;-40
2024/02/13 03:52:46;;;;;;;8.43;3.65;;;4.80;99.90;;;;;;5015530;28;20033;-41
2024/02/13 03:55:11;;;;;;;7.40;4.07;;;4.80;99.90;;;;;;5014963;28;20041;-41
2024/02/13 03:57:37;;;;;;;10.38;3.92;;;4.80;99.90;;;;;;5015279;28;20054;-41
2024/02/13 04:00:05;;;;;;;11.77;4.30;;;4.80;99.90;;;;;;5015007;28;20030;-43
2024/02/13 04:02:33;;;;;;;10.00;4.07;;;4.70;99.90;;;;;;5014866;28;20022;-45
2024/02/13 04:04:58;;;;;;;12.88;5.10;;;4.70;99.90;;;;;;5015041;28;20026;-43
2024/02/13 04:07:24;;;;;;;11.98;4.28;;;4.70;99.90;;;;;;5015184;28;20106;-41
2024/02/13 04:09:50;;;;;;;11.57;3.75;;;4.60;99.90;;;;;;5014590;28;20029;-41
2024/02/13 04:12:15;;;;;;;10.40;4.78;;;4.60;99.90;;;;;;5014756;28;20392;-41
2024/02/13 04:14:41;;;;;;;12.65;5.78;;;4.70;99.90;;;;;;5014378;28;20053;-41
2024/02/13 04:17:06;;;;;;;15.80;5.32;;;4.60;99.90;;;;;;5014766;28;20093;-43
2024/02/13 04:19:32;;;;;;;12.38;5.43;;;4.60;99.90;;;;;;5014866;28;20048;-42
2024/02/13 04:21:57;;;;;;;14.63;5.18;;;4.50;99.90;;;;;;5015486;28;20022;-46
2024/02/13 04:24:23;;;;;;;8.90;4.72;;;4.50;99.90;;;;;;5013908;28;20032;-40
2024/02/13 04:26:48;;;;;;;12.27;6.47;;;4.40;99.90;;;;;;5015334;28;20054;-41
2024/02/13 04:29:14;;;;;;;11.40;5.72;;;4.40;99.90;;;;;;5014073;28;20026;-41
2024/02/13 04:31:39;;;;;;;17.02;6.50;;;4.40;99.90;;;;;;5014132;28;20037;-43
2024/02/13 04:34:06;;;;;;;14.90;5.45;;;4.40;99.90;;;;;;5014021;28;20040;-41
2024/02/13 04:36:32;;;;;;;11.20;5.88;;;4.50;99.90;;;;;;5013753;28;20062;-42
2024/02/13 04:38:58;;;;;;;9.38;4.65;;;4.50;99.90;;;;;;5012495;28;20028;-40
2024/02/13 04:41:24;;;;;;;11.75;5.35;;;4.40;99.90;;;;;;5013907;28;20389;-41
2024/02/13 04:43:52;;;;;;;17.92;5.10;;;4.40;99.90;;;;;;5013537;28;20026;-43
2024/02/13 04:46:18;;;;;;;17.35;5.65;;;4.50;99.90;;;;;;5012351;28;20083;-45
2024/02/13 04:48:44;;;;;;;14.82;5.22;;;4.50;99.90;;;;;;5013951;28;20030;-42
2024/02/13 04:51:09;;;;;;;13.48;4.57;;;4.50;99.90;;;;;;5013568;28;20350;-39
2024/02/13 04:53:35;;;;;;;13.38;6.15;;;4.40;99.90;;;;;;5013310;28;20033;-38
2024/02/13 04:56:00;;;;;;;14.27;5.18;;;4.40;99.90;;;;;;5013540;28;20577;-44
2024/02/13 04:58:32;;;;;;;7.40;5.05;;;4.50;99.90;;;;;;5013450;28;20096;-43
2024/02/13 05:01:09;;;;;;;15.43;5.82;;;4.40;99.90;;;;;;5013515;28;20026;-42
2024/02/13 05:08:57;;;;;;;11.15;6.15;;;4.40;99.90;;;;;;5013786;28;20057;-41
2024/02/13 05:11:24;;;;;;;10.50;5.78;;;4.40;99.90;;;;;;5013297;28;20029;-41
2024/02/13 05:13:50;;;;;;;11.68;5.35;;;4.50;99.90;;;;;;5013581;28;20456;-41
2024/02/13 05:16:17;;;;;;;11.73;5.20;;;4.40;99.90;;;;;;5012964;28;20029;-43
2024/02/13 05:18:46;;;;;;;11.93;6.28;;;4.40;99.90;;;;;;5013217;28;20030;-45
2024/02/13 05:21:18;;;;;;;13.57;5.25;;;4.50;99.90;;;;;;5013405;28;20029;-43
2024/02/13 05:23:44;;;;;;;7.15;5.80;;;4.40;99.90;;;;;;5013067;28;20034;-42
2024/02/13 05:26:12;;;;;;;14.70;4.80;;;4.30;99.90;;;;;;5012772;28;20029;-44
2024/02/13 05:28:37;;;;;;;15.18;6.25;;;4.40;99.90;;;;;;5012927;28;20205;-42
2024/02/13 05:31:07;;;;;;;13.60;6.05;;;4.30;99.90;;;;;;5012981;28;20033;-43
2024/02/13 05:33:32;;;;;;;10.43;5.50;;;4.30;99.90;;;;;;5012795;28;20517;-43
2024/02/13 05:35:58;;;;;;;11.57;5.18;;;4.30;99.90;;;;;;5012511;28;20057;-41
2024/02/13 05:38:24;;;;;;;17.83;6.53;;;4.30;99.90;;;;;;5012639;28;20026;-40
2024/02/13 05:40:50;;;;;;;13.57;6.25;;;4.30;99.90;;;;;;5012797;28;20025;-41
2024/02/13 05:43:16;;;;;;;14.63;5.90;;;4.30;99.90;;;;;;5012415;28;20014;-43
2024/02/13 05:45:41;;;;;;;17.85;7.03;;;4.20;99.90;;;;;;5012501;28;20395;-41
2024/02/13 05:48:09;;;;;;;10.63;5.70;;;4.10;99.90;;;;;;5012700;28;20096;-41
2024/02/13 05:50:35;;;;;;;9.55;5.28;;;4.10;99.90;;;;;;5012669;28;20109;-45
2024/02/13 05:53:01;;;;;;;15.00;6.18;;;4.10;99.90;;;;;;5012405;28;20104;-39
2024/02/13 05:55:28;;;;;;;20.52;7.28;;;4.00;99.90;;;;;;5012384;28;20033;-42
2024/02/13 05:57:53;;;;;;;20.20;9.13;;;4.10;99.90;;;;;;5012381;28;20109;-40
2024/02/13 06:00:21;;;;;;;15.93;6.80;;;4.10;99.90;;;;;;5012555;28;20473;-43
2024/02/13 06:02:46;;;;;;;16.27;6.75;;;4.20;99.90;;;;;;5012349;28;20037;-42
2024/02/13 06:05:14;;;;;;;17.67;6.85;;;4.20;99.90;;;;;;5011834;28;20045;-42
2024/02/13 06:07:41;;;;;;;15.90;6.68;;;4.20;99.90;;;;;;5012100;28;20026;-41
2024/02/13 06:10:06;;;;;;;21.35;7.72;;;4.20;99.90;;;;;;5012217;28;20149;-41
2024/02/13 06:12:32;;;;;;;11.57;6.30;;;4.10;99.90;;;;;;5012326;28;20065;-41
2024/02/13 06:14:57;;;;;;;24.40;8.60;;;4.10;99.90;;;;;;5011900;28;20381;-43
2024/02/13 06:17:24;;;;;;;13.93;7.60;;;4.10;99.90;;;;;;5012002;28;20491;-41
2024/02/13 06:19:50;;;;;;;20.00;7.07;;;4.00;99.90;;;;;;5011847;28;20537;-42
2024/02/13 06:22:17;;;;;;;28.17;8.27;;;4.00;99.90;;;;;;5012052;28;20018;-42
2024/02/13 06:24:42;;;;;;;20.38;7.22;;;4.00;99.90;;;;;;5011671;28;20057;-41
2024/02/13 06:27:08;;;;;;;16.45;7.80;;;4.00;99.90;;;;;;5012122;28;20100;-44
2024/02/13 06:29:34;;;;;;;13.57;7.13;;;3.80;99.90;;;;;;5012350;28;20030;-44
2024/02/13 06:32:00;;;;;;;16.88;7.65;;;3.80;99.90;;;;;;5011893;28;20026;-45
2024/02/13 06:34:26;;;;;;;18.40;7.95;;;3.80;99.90;;;;;;5012110;28;20464;-45
2024/02/13 06:36:51;;;;;;;11.48;7.00;;;3.80;99.90;;;;;;5011482;28;20038;-46
2024/02/13 06:39:21;;;;;;;17.88;7.80;;;3.70;99.90;;;;;;5011905;28;20022;-38
2024/02/13 06:41:47;;;;;;;17.50;7.80;;;;;;;;;;5010539;28;20018;-41
2024/02/13 06:44:13;;;;;;;22.38;7.88;;;3.60;99.90;;;;;;4995659;28;20442;-43
2024/02/13 06:46:38;;;;;;;13.50;7.30;;;3.60;99.90;;;;;;4995060;28;20264;-46
2024/02/13 06:49:04;;;;;;;109.07;59.80;;;3.60;99.90;;;;;;5011520;28;20026;-43
2024/02/13 06:51:29;;;;;;;65.63;36.72;;;3.60;99.90;;;;;;5011405;28;20566;-39
2024/02/13 06:53:55;;;;;;;22.38;9.45;;;3.70;99.90;;;;;;5005097;28;20054;-45
2024/02/13 06:56:21;;;;;;;16.60;8.57;;;3.70;99.90;;;;;;4999557;28;20026;-44
2024/02/13 06:58:46;;;;;;;17.40;7.57;;;3.80;99.90;;;;;;4993342;28;20104;-40
2024/02/13 07:01:12;;;;;;;16.75;8.48;;;4.00;99.90;;;;;;4991971;28;20030;-42
2024/02/13 07:03:39;;;;;;;13.88;8.23;;;4.20;99.90;;;;;;4991815;28;20022;-43
2024/02/13 07:06:05;;;;;;;15.10;7.60;;;4.50;99.90;;;;;;4991744;28;20491;-44
2024/02/13 07:08:31;;;;;;;10.80;6.78;;;4.90;99.90;;;;;;4991660;28;20062;-43
2024/02/13 07:10:56;;;;;;;15.13;6.40;;;5.30;99.90;;;;;;4991673;28;20137;-43
2024/02/13 07:13:22;;;;;;;14.20;5.63;;;5.70;99.90;;;;;;4991491;28;20448;-47
2024/02/13 07:15:48;;;;;;;19.52;6.78;;;6.30;99.90;;;;;;4993246;28;20026;-46
2024/02/13 07:18:13;;;;;;;11.68;6.03;;;6.60;99.90;;;;;;4995625;28;20037;-43
2024/02/13 07:20:39;;;;;;;9.85;5.55;;;7.10;99.90;;;;;;4996230;28;20097;-44
2024/02/13 07:23:04;;;;;;;14.07;6.25;;;7.10;99.90;;;;;;4978369;28;20084;-41
2024/02/13 07:25:30;;;;;;;11.32;6.15;;;7.30;99.90;;;;;;4995854;28;20056;-46
2024/02/13 07:27:57;;;;;;;14.70;6.38;;;7.30;99.90;;;;;;4995768;28;20027;-42
2024/02/13 07:30:23;;;;;;;18.60;6.68;;;6.90;99.90;;;;;;4995563;28;20028;-48
2024/02/13 07:32:49;;;;;;;11.48;5.65;;;6.50;99.90;;;;;;4995392;28;20030;-46
2024/02/13 07:35:15;;;;;;;10.73;5.90;;;6.20;99.90;;;;;;4995405;28;20515;-42
2024/02/13 07:37:40;;;;;;;12.93;6.30;;;6.00;99.90;;;;;;4995261;28;20018;-45
2024/02/13 07:40:06;;;;;;;12.18;6.32;;;5.80;99.90;;;;;;4995313;28;20034;-43
2024/02/13 07:42:32;;;;;;;11.13;5.70;;;5.50;99.90;;;;;;4995898;28;20053;-43
2024/02/13 07:44:58;;;;;;;16.38;6.35;;;5.40;99.90;;;;;;4995399;28;20058;-43
2024/02/13 07:47:27;;;;;;;12.75;6.90;;;5.30;99.90;;;;;;4995300;28;20034;-42
2024/02/13 07:49:57;;;;;;;18.17;7.45;;;5.30;99.90;;;;;;4995153;28;20089;-48
2024/02/13 07:52:22;;;;;;;14.57;6.68;;;5.20;99.90;;;;;;4995081;28;20484;-38
2024/02/13 07:54:48;;;;;;;11.10;7.40;;;5.10;99.90;;;;;;4994714;28;20026;-39
2024/02/13 07:57:16;;;;;;;12.75;7.70;;;5.00;99.90;;;;;;4995306;28;20026;-45
2024/02/13 07:59:41;;;;;;;15.95;7.30;;;5.10;99.90;;;;;;4995447;28;20018;-45
2024/02/13 08:02:09;;;;;;;15.70;7.07;;;5.00;99.90;;;;;;4995325;28;20041;-43
2024/02/13 08:04:35;;;;;;;11.25;6.88;;;5.10;99.90;;;;;;4994502;28;20435;-44
2024/02/13 08:07:01;;;;;;;14.93;8.10;;;5.20;99.90;;;;;;4995111;28;20037;-40
2024/02/13 08:09:27;;;;;;;12.25;6.65;;;5.30;99.90;;;;;;5001792;28;20053;-42
2024/02/13 08:11:53;;;;;;;10.43;6.88;;;5.30;99.90;;;;;;4999616;28;20095;-43
2024/02/13 08:14:19;;;;;;;14.85;7.25;;;5.40;99.90;;;;;;5011862;28;20026;-40
2024/02/13 08:16:45;;;;;;;19.13;7.80;;;5.40;99.90;;;;;;5010147;28;20033;-40
2024/02/13 08:19:11;;;;;;;18.35;7.43;;;5.40;99.90;;;;;;5018241;28;20042;-42
2024/02/13 08:21:37;;;;;;;11.20;6.90;;;5.50;99.90;;;;;;5016442;28;20479;-40
2024/02/13 08:24:06;;;;;;;11.85;7.93;;;5.60;99.90;;;;;;5013281;28;20066;-41
2024/02/13 08:26:31;;;;;;;14.85;7.07;;;5.60;99.90;;;;;;5006171;28;20054;-41
2024/02/13 08:28:57;;;;;;;8.70;6.45;;;5.70;99.90;;;;;;5004278;28;20046;-44
2024/02/13 08:31:25;;;;;;;16.08;6.93;;;5.70;99.90;;;;;;5014283;28;20034;-44
2024/02/13 08:33:51;;;;;;;15.80;7.07;;;5.80;99.90;;;;;;5015374;28;20049;-44
2024/02/13 08:36:18;;;;;;;11.25;7.10;;;5.80;99.90;;;;;;5013999;28;20505;-46
2024/02/13 08:38:44;;;;;;;11.48;7.10;;;5.90;99.90;;;;;;5013999;28;20467;-43
2024/02/13 08:41:13;;;;;;;12.57;6.65;;;5.80;99.90;;;;;;5001057;28;20473;-43
2024/02/13 08:43:39;;;;;;;13.45;7.10;;;5.80;99.90;;;;;;5013452;28;20021;-43
2024/02/13 08:46:04;;;;;;;17.98;8.18;;;5.90;99.90;;;;;;5008787;28;20089;-42
2024/02/13 08:48:30;;;;;;;13.93;7.70;;;5.90;99.90;;;;;;4996529;28;20043;-43
2024/02/13 08:50:56;;;;;;;13.13;7.47;;;6.00;99.90;;;;;;5004936;28;20025;-42
2024/02/13 08:53:23;;;;;;;13.32;8.25;;;6.00;99.90;;;;;;4994086;28;20018;-44
2024/02/13 08:55:49;;;;;;;13.35;6.97;;;6.00;99.90;;;;;;5006000;28;20026;-43
2024/02/13 08:58:15;;;;;;;15.10;8.15;;;6.00;99.90;;;;;;5013397;28;20041;-42
2024/02/13 09:00:40;;;;;;;19.52;7.78;;;6.20;99.90;;;;;;5013499;28;20017;-43
2024/02/13 09:03:06;;;;;;;17.02;8.77;;;6.30;99.90;;;;;;5013795;28;20482;-43
2024/02/13 09:05:31;;;;;;;18.30;9.23;;;6.40;99.90;;;;;;5013204;28;20018;-42
2024/02/13 09:07:57;;;;;;;18.48;9.02;;;6.50;99.90;;;;;;5001324;28;20109;-46
2024/02/13 09:10:22;;;;;;;19.45;8.75;;;6.50;99.90;;;;;;5003697;28;20404;-43
2024/02/13 09:12:48;;;;;;;16.80;8.98;;;6.50;99.90;;;;;;5004868;28;20054;-46
2024/02/13 09:15:13;;;;;;;15.27;8.98;;;6.60;99.90;;;;;;4993447;28;20377;-42
2024/02/13 09:17:43;;;;;;;11.25;7.80;;;6.70;99.90;;;;;;5006738;28;20018;-44
2024/02/13 09:20:16;;;;;;;14.90;7.97;;;6.90;99.90;;;;;;5012126;28;20029;-45
2024/02/13 09:22:44;;;;;;;11.40;7.10;;;7.20;99.90;;;;;;5013104;28;20049;-46
2024/02/13 09:25:11;;;;;;;13.75;6.78;;;7.60;99.90;;;;;;5012880;28;20036;-45
2024/02/13 09:27:37;;;;;;;9.25;5.80;;;8.00;99.90;;;;;;5013283;28;20030;-47
2024/02/13 09:30:03;;;;;;;15.77;9.60;;;8.50;99.90;;;;;;4997792;28;20050;-47
2024/02/13 09:32:28;;;;;;;22.45;12.13;;;8.90;99.90;;;;;;4993173;28;20070;-42
2024/02/13 09:34:54;;;;;;;11.77;6.38;;;9.80;99.90;;;;;;4992889;28;20420;-45
2024/02/13 09:37:20;;;;;;;9.52;5.43;;;10.30;99.90;;;;;;4993335;28;20550;-41
2024/02/13 09:39:46;;;;;;;7.68;5.00;;;11.00;99.90;;;;;;5011712;28;20510;-43
2024/02/13 09:42:16;;;;;;;10.23;5.93;;;11.80;99.90;;;;;;5012576;28;20030;-44
2024/02/13 09:44:42;;;;;;;10.63;5.10;;;12.30;99.90;;;;;;5027752;28;20022;-44
2024/02/13 09:47:09;;;;;;;7.35;4.43;;;12.90;99.90;;;;;;5012386;28;20097;-46
2024/02/13 09:49:36;;;;;;;9.45;4.40;;;13.00;99.90;;;;;;5012589;28;20041;-42
2024/02/13 09:52:09;;;;;;;8.98;4.95;;;12.70;99.90;;;;;;5012488;28;20060;-45
2024/02/13 09:54:35;;;;;;;9.13;4.85;;;12.60;99.90;;;;;;5011305;28;20080;-43
2024/02/13 09:57:05;;;;;;;6.70;4.70;;;12.10;99.90;;;;;;5011758;28;20025;-43
2024/02/13 09:59:31;;;;;;;9.35;6.00;;;11.80;99.90;;;;;;5013039;28;20028;-43
2024/02/13 10:01:59;;;;;;;13.32;5.65;;;11.30;99.90;;;;;;5004215;28;20113;-43
2024/02/13 10:04:25;;;;;;;12.13;6.20;;;10.70;99.90;;;;;;4997616;28;20081;-43
2024/02/13 10:06:50;;;;;;;9.07;6.47;;;10.20;99.90;;;;;;5011792;28;20030;-43
2024/02/13 10:09:17;;;;;;;10.13;6.07;;;9.90;99.90;;;;;;4994908;28;20450;-43
2024/02/13 10:11:42;;;;;;;15.40;6.65;;;9.50;99.90;;;;;;4993150;28;20034;-45
2024/02/13 10:14:21;;;;;;;11.35;6.43;;;9.20;99.90;;;;;;5009892;28;20053;-43
2024/02/13 10:16:51;;;;;;;15.27;7.10;;;8.90;99.90;;;;;;5012500;28;20484;-43
2024/02/13 10:19:24;;;;;;;13.95;6.65;;;8.70;99.90;;;;;;5012175;28;20038;-43
2024/02/13 10:21:51;;;;;;;11.38;7.07;;;8.60;99.90;;;;;;4998543;28;20029;-38
2024/02/13 10:24:17;;;;;;;11.65;5.55;;;8.60;99.90;;;;;;4992730;28;20031;-46
2024/02/13 10:26:42;;;;;;;11.07;6.22;;;8.90;99.90;;;;;;4990617;28;20653;-44
2024/02/13 10:29:08;;;;;;;14.48;6.28;;;9.00;99.90;;;;;;4991977;28;20543;-43
2024/02/13 10:31:37;;;;;;;7.38;5.40;;;9.10;99.90;;;;;;4992384;28;20073;-43
2024/02/13 10:34:04;;;;;;;12.18;5.15;;;9.00;99.90;;;;;;4992364;28;20030;-43
2024/02/13 10:36:32;;;;;;;6.07;4.50;;;9.00;99.90;;;;;;4992355;28;20484;-44
2024/02/13 10:39:03;;;;;;;9.68;4.10;;;9.10;99.90;;;;;;4997231;28;20073;-44
2024/02/13 10:41:33;;;;;;;6.43;4.18;;;9.40;99.90;;;;;;5003403;28;20036;-43
2024/02/13 10:43:59;;;;;;;8.30;4.07;;;9.60;99.90;;;;;;4993905;28;20442;-47
2024/02/13 10:46:28;;;;;;;5.80;4.10;;;10.00;99.90;;;;;;5012104;28;20376;-44
2024/02/13 10:48:59;;;;;;;10.52;4.10;;;10.10;99.90;;;;;;5011766;28;20083;-44
2024/02/13 10:51:27;;;;;;;8.50;4.03;;;10.20;99.90;;;;;;4984708;28;20078;-44
2024/02/13 10:53:54;;;;;;;6.53;4.43;;;10.10;99.90;;;;;;4991707;28;20018;-42
2024/02/13 10:56:21;;;;;;;8.23;4.28;;;9.90;99.90;;;;;;4991737;28;20432;-43
2024/02/13 10:58:49;;;;;;;6.07;3.80;;;9.90;99.90;;;;;;5005826;28;20391;-43
2024/02/13 11:01:17;;;;;;;5.85;3.75;;;9.80;99.90;;;;;;5011138;28;20049;-47
2024/02/13 11:03:43;;;;;;;7.90;4.28;;;9.80;99.90;;;;;;5011060;28;20033;-47
2024/02/13 11:06:10;;;;;;;8.07;4.72;;;9.70;99.90;;;;;;5010801;28;20025;-48
2024/02/13 11:08:36;;;;;;;11.48;5.57;;;9.60;99.90;;;;;;5010830;28;20117;-42
2024/02/13 11:11:06;;;;;;;15.20;5.35;;;9.60;99.90;;;;;;5011284;28;20062;-46
2024/02/13 11:13:34;;;;;;;9.77;5.57;;;9.70;99.90;;;;;;5011123;28;20018;-45
2024/02/13 11:16:04;;;;;;;8.98;4.38;;;9.80;99.90;;;;;;5009245;28;20097;-41
2024/02/13 11:18:32;;;;;;;9.13;4.38;;;9.90;99.90;;;;;;5011507;28;20080;-44
2024/02/13 11:21:00;;;;;;;16.77;5.22;;;9.80;99.90;;;;;;5011248;28;20022;-45
2024/02/13 11:23:28;;;;;;;9.02;4.97;;;9.90;99.90;;;;;;5009340;28;20018;-46
2024/02/13 11:26:01;;;;;;;7.18;4.03;;;10.00;99.90;;;;;;4980041;28;20069;-44
2024/02/13 11:28:33;;;;;;;5.20;3.65;;;9.90;99.90;;;;;;5011319;28;20034;-44
2024/02/13 11:30:59;;;;;;;6.32;4.40;;;9.80;99.90;;;;;;5011378;28;20026;-48
2024/02/13 11:33:24;;;;;;;5.80;4.43;;;9.80;99.90;;;;;;4993454;28;20080;-43
2024/02/13 11:35:54;;;;;;;6.20;3.80;;;9.70;99.90;;;;;;5006495;28;20391;-44
2024/02/13 11:38:23;;;;;;;4.35;3.20;;;9.70;99.90;;;;;;5001203;28;20026;-44
2024/02/13 11:40:54;;;;;;;6.15;3.65;;;9.60;99.90;;;;;;4991842;28;20026;-41
2024/02/13 11:43:28;;;;;;;5.28;2.90;;;9.60;99.90;;;;;;4991516;28;20030;-45
2024/02/13 11:45:57;;;;;;;6.68;3.80;;;9.60;99.90;;;;;;4990626;28;20517;-43
2024/02/13 11:48:25;;;;;;;3.92;2.70;;;9.60;99.90;;;;;;4999157;28;20033;-42
2024/02/13 11:50:57;;;;;;;5.93;3.05;;;9.70;99.90;;;;;;5010996;28;20029;-44
2024/02/13 11:53:24;;;;;;;8.18;2.80;;;9.80;99.90;;;;;;5011000;28;20162;-45
2024/02/13 11:55:54;;;;;;;4.05;3.10;;;9.70;99.90;;;;;;5011005;28;20097;-46
2024/02/13 11:58:21;;;;;;;8.95;3.30;;;9.80;99.90;;;;;;5010883;28;20515;-42
2024/02/13 12:01:02;;;;;;;2.55;2.30;;;9.70;99.90;;;;;;5010157;28;20022;-45
2024/02/13 12:03:28;;;;;;;4.50;2.50;;;9.80;99.90;;;;;;5013521;28;20018;-44
2024/02/13 12:05:55;;;;;;;4.30;2.30;;;9.70;99.90;;;;;;5002449;28;20026;-40
2024/02/13 12:08:21;;;;;;;3.08;2.38;;;9.60;99.90;;;;;;4995617;28;20026;-41
2024/02/13 12:10:49;;;;;;;3.20;2.17;;;9.60;99.90;;;;;;4995138;28;20018;-41
2024/02/13 12:13:17;;;;;;;4.32;2.47;;;9.60;99.90;;;;;;4995050;28;20039;-45
2024/02/13 12:15:44;;;;;;;5.25;2.17;;;9.70;99.90;;;;;;4994590;28;20038;-44
2024/02/13 12:18:13;;;;;;;2.58;2.13;;;9.80;99.90;;;;;;4994624;28;20073;-41
2024/02/13 12:20:39;;;;;;;3.92;2.13;;;9.90;99.90;;;;;;4995887;28;20022;-50
2024/02/13 12:23:06;;;;;;;4.18;2.15;;;10.00;99.90;;;;;;4995575;28;20403;-42
2024/02/13 12:25:35;;;;;;;4.57;2.47;;;10.10;99.90;;;;;;4994425;28;20015;-43
2024/02/13 12:28:03;;;;;;;3.10;2.50;;;10.10;99.90;;;;;;4978395;28;20022;-45
2024/02/13 12:30:28;;;;;;;5.50;2.58;;;10.00;99.90;;;;;;4995096;28;20464;-42
2024/02/13 12:32:54;;;;;;;3.08;2.05;;;10.00;99.90;;;;;;4994524;28;20105;-40
2024/02/13 12:35:24;;;;;;;2.92;1.98;;;10.00;99.90;;;;;;4995023;28;20113;-44
2024/02/13 12:37:54;;;;;;;4.65;2.72;;;9.90;99.90;;;;;;4994154;28;20027;-43
2024/02/13 12:40:22;;;;;;;3.30;2.72;;;10.00;99.90;;;;;;4993160;28;20025;-44
2024/02/13 12:42:48;;;;;;;6.45;2.15;;;10.00;99.90;;;;;;4997356;28;20078;-43
2024/02/13 12:45:18;;;;;;;5.00;2.78;;;10.00;99.90;;;;;;5035567;23;20041;-49
2024/02/13 12:47:44;;;;;;;2.45;2.00;;;10.00;99.90;;;;;;5014893;28;20026;-47
2024/02/13 12:50:15;;;;;;;3.00;2.10;;;9.90;99.90;;;;;;5002386;28;20105;-53
2024/02/13 12:52:41;;;;;;;3.78;1.98;;;9.80;99.90;;;;;;4994310;28;20031;-47
2024/02/13 12:55:09;;;;;;;4.50;1.70;;;9.80;99.90;;;;;;5003065;28;20100;-47